AirNav   Bose Proflight Series 2 Wireless Aviation Headset
 
 964 users online  

OI97 St Ann's Heliport
Westerville, Ohio, USA

GOING TO WESTERVILLE?


FAA INFORMATION EFFECTIVE 07 NOVEMBER 2019

Location

FAA Identifier: OI97
Lat/Long: 40-06-49.2700N 082-56-37.6900W
40-06.821167N 082-56.628167W
40.1136861,-82.9438028
(estimated)
Elevation: 806 ft. / 246 m (estimated)
Variation: 05W (1990)
From city: 2 miles SW of WESTERVILLE, OH
Time zone: UTC -5 (UTC -4 during Daylight Saving Time)
Zip code: 43081

Heliport Operations

Heliport use: Private use, MEDICAL USE.
Activation date: 08/1994
Control tower: no
ARTCC: INDIANAPOLIS CENTER
FSS: DAYTON FLIGHT SERVICE STATION
Attendance: UNATNDD
Wind indicator: yes
Segmented circle: no

Heliport Communications

WX ASOS at OSU (6 nm W): PHONE 614-451-2465
WX ASOS at CMH (7 nm S): 124.6 (614-338-4083)
WX AWOS-3 at DLZ (13 nm NW): 119.025 (740-203-1878)
WX AWOS-3 at TZR (16 nm SW): 135.925 (614-878-1722)
WX AWOS-3 at LCK (18 nm S): PHONE 614-492-2441
WX AWOS-3 at MRT (20 nm W): 119.275 (937-644-2967)

Nearby radio navigation aids

VOR radial/distance  VOR name  Freq  Var
APEr268/16.5APPLETON VORTAC116.7006W
BUDr175/(30.7)BUCKEYE VOR109.8005W
XUBr008/(35.2)YELLOW BUD VOR112.5005W

 
NDB name  Hdg/Dist  Freq  Var  ID
FULER083/11.951505WOS --- ...
PICKL347/14.837607WLC .-.. -.-.
COURT HOUSE040/37.041406WCSS -.-. ... ...

Heliport Services

Runway Information

Helipad H1

Dimensions: 40 x 40 ft. / 12 x 12 m
Surface: asphalt
Latitude: 40-06.821167N
Longitude: 082-56.628167W
Elevation: 806.0 ft.
Traffic pattern: leftleft

Heliport Ownership and Management from official FAA records

Ownership: Privately-owned
Owner: ST ANN'S HOSPITAL OF COLUMBUS
500 S CLEVELAND AVE
WESTERVILLE, OH 43068
Phone 614-898-4000
Manager: KENT BEHRMAN
5005 CLEVELAND AVE
WESTERVILLE, OH 43068
Phone 614-546-4596
ADDITIONAL CONTACT: KENT BEHRMAN 500 S CLEVELAND AVE WESTERVILLE, OH 43213 614-898-4390

Additional Remarks

A52-H1 40 FT POLE 50 FT W.
FOR CD CTC COLUMBUS APCH AT 614-338-8537

Instrument Procedures

There are no published instrument procedures at OI97.

Some nearby airports with instrument procedures:

KOSU - Ohio State University Airport (6 nm W)
KCMH - John Glenn Columbus International Airport (7 nm S)
KDLZ - Delaware Municipal Airport - Jim Moore Field (13 nm NW)
KTZR - Bolton Field Airport (16 nm SW)
KLCK - Rickenbacker International Airport (18 nm S)
KMRT - Union County Airport (20 nm W)
 
Loc | Ops | Rwys | IFR | FBO | Links
Com | Nav | Svcs | Stats | Notes
Area around OI97 (St Ann's Heliport)
 
Road maps at: MapQuest Bing Google
 
Aerial photo
No photo
 
Sectional chart

 
Airport distance calculator
Flying to St Ann's Heliport? Find the distance to fly.

From to OI97

Sunrise and sunset
Times for 16-Nov-2019
 Local
(UTC-5)
 Zulu
(UTC)
Morning civil twilight06:5011:50
Sunrise07:1912:19
Sunset17:1422:14
Evening civil twilight17:4322:43

Current date and time
Zulu (UTC)  16-Nov-2019 21:31:33
Local (UTC-5)  16-Nov-2019 16:31:33
 
METAR
KOSU 
7nm W 
162053Z 02008KT 10SM CLR 06/M05 A3026 RMK AO2 SLP254 T00611050 56017
KCMH 
7nm S 
162051Z 05009KT 10SM SCT250 07/M05 A3025 RMK AO2 SLP252 T00671050 56017 $
KDLZ 
13nm NW 
162115Z AUTO 36010KT 10SM CLR 04/M01 A3027 RMK AO2
KTZR 
16nm SW 
162045Z 05006KT 10SM SKC 06/M04 A3026
KLCK 
18nm S 
162115Z AUTO 04008KT 10SM CLR 06/M05 A3026 RMK AO2 T00581047
KMRT 
20nm W 
162116Z AUTO 03009KT 10SM CLR 04/M03 A3027 RMK AO2 T00401026
TAF
KCMH 
7nm S 
161729Z 1618/1718 05010KT P6SM SCT028 FM170000 06004KT P6SM SCT250 FM171400 14005KT P6SM SCT250
KLCK 
18nm S 
161729Z 1618/1718 05010KT P6SM SCT028 FM170000 06004KT P6SM SCT250 FM171400 14005KT P6SM SCT250
NOTAMs
Click for the latest NOTAMs
NOTAMs are issued by the DoD/FAA and will open in a separate window not controlled by AirNav.

 

 
 

Would you like to see your business listed on this page?

 If your business provides an interesting product or service to pilots, flight crews, aircraft, or users of the St Ann's Heliport, you should consider listing it here.  To start the listing process, click on the button below
 
Add a business
 

Other Pages about St Ann's Heliport

Update a link
 
Copyright © AirNav, LLC. All rights reserved. Privacy Policy  Contact